createdAt,value
2022-12-04T00:04:54.082Z,272.80
2022-12-04T00:09:56.171Z,290.10
2022-12-04T00:15:24.731Z,208.20
2022-12-04T00:20:20.162Z,159.68
2022-12-04T00:25:21.972Z,134.57
2022-12-04T00:30:23.908Z,276.27
2022-12-04T00:35:26.188Z,103.13
2022-12-04T00:40:28.036Z,201.75
2022-12-04T00:45:29.921Z,288.60
2022-12-04T00:50:31.779Z,401.65
2022-12-04T00:55:33.656Z,154.07
2022-12-04T01:00:37.098Z,134.32
2022-12-04T01:05:41.118Z,86.53
2022-12-04T01:10:42.981Z,59.72
2022-12-04T01:15:44.930Z,64.55
2022-12-04T01:20:49.339Z,86.28
2022-12-04T01:25:55.817Z,61.88
2022-12-04T01:31:06.529Z,66.47
2022-12-04T01:36:12.398Z,63.17
2022-12-04T01:41:15.954Z,78.57
2022-12-04T01:46:17.822Z,73.38
2022-12-04T01:51:25.452Z,58.00
2022-12-04T01:56:33.644Z,78.35
2022-12-04T02:01:42.869Z,123.82
2022-12-04T02:06:44.723Z,111.15
2022-12-04T02:12:20.419Z,92.07
2022-12-04T02:17:32.338Z,76.90
2022-12-04T02:22:54.211Z,65.93
2022-12-04T02:28:15.634Z,68.25
2022-12-04T02:33:23.316Z,124.03
2022-12-04T02:38:37.347Z,86.18
2022-12-04T02:43:48.282Z,68.65
2022-12-04T02:48:53.543Z,77.45
2022-12-04T02:54:01.493Z,96.88
2022-12-04T02:59:29.375Z,66.13
2022-12-04T03:04:31.811Z,67.97
2022-12-04T03:09:39.243Z,71.07
2022-12-04T03:14:50.048Z,80.28
2022-12-04T03:19:59.742Z,68.90
2022-12-04T03:25:05.482Z,84.00
2022-12-04T03:30:10.207Z,82.47
2022-12-04T03:35:26.400Z,60.10
2022-12-04T03:40:43.943Z,59.92
2022-12-04T03:45:59.952Z,79.25
2022-12-04T03:51:29.621Z,64.43
2022-12-04T03:56:58.046Z,72.80
2022-12-04T04:02:03.189Z,78.85
2022-12-04T04:07:16.129Z,80.57
2022-12-04T04:12:23.684Z,69.25
2022-12-04T04:17:49.478Z,61.33
2022-12-04T04:23:14.991Z,73.30
2022-12-04T04:28:37.733Z,71.28
2022-12-04T04:33:48.554Z,81.63
2022-12-04T04:39:08.015Z,94.68
2022-12-04T04:45:05.903Z,74.47
2022-12-04T04:50:10.881Z,77.03
2022-12-04T04:55:13.548Z,135.32
2022-12-04T05:00:18.535Z,180.18
2022-12-04T05:05:20.397Z,80.78
2022-12-04T05:10:22.229Z,146.98
2022-12-04T05:15:24.031Z,423.88
2022-12-04T05:20:25.821Z,259.67
2022-12-04T05:25:28.065Z,314.90
2022-12-04T05:30:29.858Z,241.25
2022-12-04T05:35:31.687Z,349.65
2022-12-04T05:40:33.474Z,531.42
2022-12-04T05:45:35.249Z,144.25
2022-12-04T05:50:38.757Z,259.65
2022-12-04T05:55:40.605Z,372.38
2022-12-04T06:00:42.410Z,397.52
2022-12-04T06:05:44.338Z,503.13
2022-12-04T06:10:46.138Z,131.57
2022-12-04T06:15:47.926Z,311.42
2022-12-04T06:20:49.812Z,216.45
2022-12-04T06:25:51.744Z,210.95
2022-12-04T06:30:53.576Z,245.35
2022-12-04T06:36:06.659Z,189.23
2022-12-04T06:41:11.354Z,114.10
2022-12-04T06:46:16.365Z,240.77
2022-12-04T06:51:22.072Z,149.57
2022-12-04T06:56:26.521Z,336.55
2022-12-04T07:01:31.337Z,85.47
2022-12-04T07:06:36.651Z,487.60
2022-12-04T07:11:40.145Z,381.50
2022-12-04T07:16:43.647Z,501.85
2022-12-04T07:21:45.780Z,434.83
2022-12-04T07:26:47.678Z,614.85
2022-12-04T07:31:49.638Z,266.00
2022-12-04T07:36:51.477Z,188.45
2022-12-04T07:41:53.272Z,257.10
2022-12-04T07:46:55.079Z,491.60
2022-12-04T07:51:56.883Z,373.63
2022-12-04T07:56:58.756Z,173.55
2022-12-04T08:02:00.727Z,77.20
2022-12-04T08:07:02.609Z,59.92
2022-12-04T08:12:04.526Z,62.22
2022-12-04T08:17:06.411Z,55.00
2022-12-04T08:22:08.641Z,67.78
2022-12-04T08:27:10.456Z,60.30
2022-12-04T08:32:12.237Z,59.83
2022-12-04T08:37:14.063Z,54.65
2022-12-04T08:42:15.866Z,62.55
2022-12-04T08:47:17.655Z,52.38
2022-12-04T08:52:19.457Z,56.55
2022-12-04T08:57:21.190Z,45.97
2022-12-04T09:02:22.959Z,58.40
2022-12-04T09:07:24.783Z,58.92
2022-12-04T09:12:26.578Z,45.75
2022-12-04T09:17:28.349Z,65.50
2022-12-04T09:22:45.566Z,65.57
2022-12-04T09:28:17.195Z,63.28
2022-12-04T09:33:19.109Z,55.97
2022-12-04T09:38:21.383Z,62.58
2022-12-04T09:43:31.613Z,61.80
2022-12-04T09:48:37.552Z,52.08
2022-12-04T09:53:47.553Z,62.50
2022-12-04T09:59:03.344Z,53.00
2022-12-04T10:04:06.601Z,61.30
2022-12-04T10:09:21.149Z,63.15
2022-12-04T10:14:49.528Z,58.10
2022-12-04T10:20:07.667Z,59.88
2022-12-04T10:25:15.241Z,69.03
2022-12-04T10:30:22.590Z,67.25
2022-12-04T10:35:30.209Z,59.70
2022-12-04T10:40:40.437Z,61.63
2022-12-04T10:45:42.685Z,62.03
2022-12-04T10:50:44.658Z,63.20
2022-12-04T10:55:46.607Z,57.95
2022-12-04T11:01:15.791Z,61.17
2022-12-04T11:06:25.348Z,54.03
2022-12-04T11:11:34.502Z,39.35
2022-12-04T11:16:44.850Z,56.57
2022-12-04T11:21:47.152Z,55.38
2022-12-04T11:26:50.638Z,57.25
2022-12-04T11:31:55.471Z,58.92
2022-12-04T11:36:57.913Z,57.10
2022-12-04T11:42:07.191Z,75.75
2022-12-04T11:47:17.688Z,60.67
2022-12-04T11:52:38.529Z,62.00
2022-12-04T11:58:27.009Z,60.97
2022-12-04T12:03:44.295Z,61.08
2022-12-04T12:09:12.919Z,51.40
2022-12-04T12:14:52.235Z,59.55
2022-12-04T12:20:04.313Z,65.35
2022-12-04T12:25:12.057Z,66.85
2022-12-04T12:30:13.984Z,68.78
2022-12-04T12:35:36.181Z,65.78
2022-12-04T12:40:42.605Z,68.80
2022-12-04T12:46:26.529Z,70.03
2022-12-04T12:51:40.226Z,68.53
2022-12-04T12:56:49.962Z,66.30
2022-12-04T13:02:00.931Z,62.58
2022-12-04T13:07:18.488Z,61.75
2022-12-04T13:12:22.748Z,61.30
2022-12-04T13:17:35.095Z,62.05
2022-12-04T13:23:07.769Z,64.65
2022-12-04T13:28:47.246Z,61.17
2022-12-04T13:33:54.889Z,60.72
2022-12-04T13:39:08.801Z,62.65
2022-12-04T13:44:24.880Z,58.10
2022-12-04T13:49:33.744Z,55.55
2022-12-04T13:54:37.089Z,55.72
2022-12-04T13:59:40.391Z,55.97
2022-12-04T14:04:46.634Z,61.90
2022-12-04T14:09:53.494Z,59.45
2022-12-04T14:15:02.293Z,65.90
2022-12-04T14:20:24.710Z,66.25
2022-12-04T14:25:38.104Z,58.42
2022-12-04T14:30:41.375Z,59.08
2022-12-04T14:35:59.392Z,51.67
2022-12-04T14:41:01.867Z,52.00
2022-12-04T14:46:26.504Z,53.80
2022-12-04T14:51:42.155Z,53.92
2022-12-04T14:56:58.963Z,48.13
2022-12-04T15:02:00.831Z,56.45
2022-12-04T15:07:02.910Z,57.40
2022-12-04T15:12:34.233Z,48.78
2022-12-04T15:17:36.208Z,47.95
2022-12-04T15:22:38.423Z,44.70
2022-12-04T15:27:40.495Z,49.25
2022-12-04T15:32:42.553Z,44.92
2022-12-04T15:37:44.709Z,44.55
2022-12-04T15:42:46.618Z,43.80
2022-12-04T15:47:48.397Z,39.30
2022-12-04T15:53:05.354Z,43.67
2022-12-04T15:58:17.510Z,44.30
2022-12-04T16:03:31.565Z,46.35
2022-12-04T16:08:40.597Z,45.65
2022-12-04T16:13:42.495Z,41.70
2022-12-04T16:18:45.872Z,46.95
2022-12-04T16:23:47.996Z,45.28
2022-12-04T16:28:49.784Z,42.15
2022-12-04T16:33:52.397Z,34.55
2022-12-04T16:38:54.275Z,42.13
2022-12-04T16:43:58.828Z,35.47
2022-12-04T16:49:07.069Z,36.58
2022-12-04T16:54:11.702Z,37.10
2022-12-04T16:59:13.555Z,37.47
2022-12-04T17:04:16.904Z,41.08
2022-12-04T17:09:18.882Z,36.88
2022-12-04T17:14:20.760Z,34.28
2022-12-04T17:19:22.576Z,32.22
2022-12-04T17:24:24.373Z,38.88
2022-12-04T17:29:26.208Z,38.58
2022-12-04T17:34:27.995Z,40.17
2022-12-04T17:39:29.794Z,39.60
2022-12-04T17:44:31.601Z,35.30
2022-12-04T17:49:33.568Z,36.30
2022-12-04T17:54:35.791Z,37.53
2022-12-04T17:59:37.649Z,36.28
2022-12-04T18:04:39.574Z,33.28
2022-12-04T18:09:41.607Z,36.40
2022-12-04T18:14:43.466Z,34.90
2022-12-04T18:19:45.282Z,32.25
2022-12-04T18:24:47.128Z,34.83
2022-12-04T18:29:48.952Z,26.50
2022-12-04T18:34:50.774Z,30.95
2022-12-04T18:39:52.835Z,29.60
2022-12-04T18:44:54.711Z,31.08
2022-12-04T18:49:56.764Z,30.52
2022-12-04T18:54:58.926Z,31.50
2022-12-04T19:00:00.849Z,28.52
2022-12-04T19:05:03.393Z,29.63
2022-12-04T19:10:11.393Z,30.98
2022-12-04T19:15:14.276Z,34.35
2022-12-04T19:20:18.552Z,34.13
2022-12-04T19:25:20.423Z,28.95
2022-12-04T19:30:22.532Z,29.42
2022-12-04T19:35:24.585Z,29.98
2022-12-04T19:40:26.807Z,29.10
2022-12-04T19:45:29.269Z,31.27
2022-12-04T19:50:32.432Z,32.70
2022-12-04T19:55:36.740Z,31.52
2022-12-04T20:00:38.636Z,29.85
2022-12-04T20:05:40.971Z,31.55
2022-12-04T20:10:43.394Z,32.22
2022-12-04T20:15:45.449Z,29.60
2022-12-04T20:20:56.274Z,29.95
2022-12-04T20:26:04.534Z,33.92
2022-12-04T20:31:31.696Z,27.35
2022-12-04T20:36:39.025Z,35.72
2022-12-04T20:41:42.355Z,25.60
2022-12-04T20:46:45.597Z,30.50
2022-12-04T20:51:48.095Z,31.02
2022-12-04T20:56:53.457Z,29.25
2022-12-04T21:01:55.962Z,28.30
2022-12-04T21:06:58.850Z,34.30
2022-12-04T21:12:00.746Z,39.40
2022-12-04T21:17:06.337Z,27.63
2022-12-04T21:22:08.383Z,39.40
2022-12-04T21:27:13.353Z,36.38
2022-12-04T21:32:19.376Z,30.90
2022-12-04T21:37:21.298Z,41.72
2022-12-04T21:42:32.494Z,27.35
2022-12-04T21:47:35.505Z,32.63
2022-12-04T21:52:37.410Z,35.90
2022-12-04T21:57:39.236Z,30.35
2022-12-04T22:02:41.151Z,26.55
2022-12-04T22:07:43.003Z,23.52
2022-12-04T22:12:50.332Z,24.38
2022-12-04T22:17:52.626Z,18.27
2022-12-04T22:22:54.467Z,20.35
2022-12-04T22:27:57.680Z,18.30
2022-12-04T22:32:59.806Z,26.52
2022-12-04T22:38:01.660Z,19.67
2022-12-04T22:43:03.484Z,18.33
2022-12-04T22:48:05.543Z,19.55
2022-12-04T22:53:07.373Z,19.48
2022-12-04T22:58:09.178Z,23.90
2022-12-04T23:03:11.124Z,24.15
2022-12-04T23:08:13.037Z,27.35
2022-12-04T23:13:14.935Z,23.98
2022-12-04T23:18:16.920Z,30.90
2022-12-04T23:23:18.775Z,26.40
2022-12-04T23:28:20.824Z,32.90
2022-12-04T23:33:22.657Z,34.15
2022-12-04T23:38:26.586Z,33.03
2022-12-04T23:43:28.590Z,30.92
2022-12-04T23:48:30.498Z,29.35
2022-12-04T23:53:32.360Z,31.60
2022-12-04T23:58:35.295Z,32.83
